Time;durP1;ratioP1;P1;durP2;ratioP2;P2;SDS_P1;SDS_P2;PMS_P1;PMS_P2;Temp;Humidity;BMP_temperature;BMP_pressure;BME280_temperature;BME280_humidity;BME280_pressure;Samples;Min_cycle;Max_cycle;Signal;HPM_P1;HPM_P2
2022/09/29 00:00:29;;;;;;;4.38;2.05;;;10.30;99.90;;;10.28;100.00;99418.94;5186317;28;20438;-69
2022/09/29 00:03:01;;;;;;;4.07;2.15;;;10.30;99.90;;;10.25;100.00;99425.00;5186129;28;20065;-71
2022/09/29 00:05:34;;;;;;;3.13;2.10;;;10.30;99.90;;;10.24;100.00;99425.00;5168527;28;20588;-69
2022/09/29 00:08:06;;;;;;;3.50;2.35;;;10.30;99.90;;;10.23;100.00;99425.81;5185955;28;20054;-68
2022/09/29 00:10:40;;;;;;;3.80;2.28;;;10.20;99.90;;;10.22;100.00;99418.81;5185839;28;20383;-67
2022/09/29 00:13:13;;;;;;;4.53;2.25;;;10.30;99.90;;;10.20;100.00;99423.16;5184718;28;20049;-68
2022/09/29 00:15:56;;;;;;;3.90;1.98;;;10.20;99.90;;;10.14;100.00;99425.66;5185736;28;20038;-69
2022/09/29 00:18:31;;;;;;;3.80;1.90;;;10.10;99.90;;;10.09;100.00;99422.09;5185517;28;20046;-69
2022/09/29 00:21:07;;;;;;;2.90;1.95;;;10.10;99.90;;;10.02;100.00;99422.00;5168278;28;20057;-69
2022/09/29 00:23:39;;;;;;;4.72;2.45;;;10.10;99.90;;;9.97;100.00;99428.88;5185902;28;20046;-71
2022/09/29 00:26:14;;;;;;;4.85;2.50;;;10.00;99.90;;;9.94;100.00;99430.56;5186273;28;20076;-69
2022/09/29 00:28:51;;;;;;;2.90;1.92;;;9.90;99.90;;;9.93;100.00;99434.91;5184435;28;20058;-70
2022/09/29 00:31:28;;;;;;;4.47;2.20;;;9.90;99.90;;;9.90;100.00;99428.75;5185901;28;20047;-68
2022/09/29 00:34:00;;;;;;;3.08;2.00;;;9.90;99.90;;;9.84;100.00;99424.31;5168101;28;20053;-68
2022/09/29 00:36:32;;;;;;;4.05;2.00;;;9.90;99.90;;;9.78;100.00;99422.53;5185475;28;20038;-70
2022/09/29 00:39:04;;;;;;;4.20;2.35;;;9.80;99.90;;;9.74;100.00;99419.84;5185875;28;20050;-70
2022/09/29 00:41:38;;;;;;;3.63;2.20;;;9.80;99.90;;;9.71;100.00;99419.78;5185762;28;20054;-70
2022/09/29 00:45:01;;;;;;;3.33;2.08;;;9.80;99.90;;;9.65;100.00;99425.78;5185661;28;20057;-68
2022/09/29 00:47:37;;;;;;;3.28;2.17;;;9.70;99.90;;;9.58;100.00;99418.69;5185271;28;20491;-69
2022/09/29 00:50:17;;;;;;;2.75;1.92;;;9.60;99.90;;;9.52;100.00;99422.09;5185792;28;20522;-70
2022/09/29 00:52:55;;;;;;;3.72;2.13;;;9.60;99.90;;;9.47;100.00;99421.13;5167576;28;20057;-71
2022/09/29 00:55:33;;;;;;;2.72;1.98;;;9.50;99.90;;;9.42;100.00;99427.09;5185365;28;20092;-70
2022/09/29 00:58:09;;;;;;;3.33;1.95;;;9.50;99.90;;;9.38;100.00;99428.75;5184587;28;20052;-69
2022/09/29 01:00:42;;;;;;;3.22;2.03;;;9.40;99.90;;;9.35;100.00;99433.91;5184714;28;20521;-68
2022/09/29 01:03:20;;;;;;;5.18;1.80;;;9.40;99.90;;;9.30;100.00;99432.94;5167002;28;20053;-68
2022/09/29 01:05:57;;;;;;;2.90;1.90;;;9.40;99.90;;;9.24;100.00;99431.09;5184987;28;20038;-71
2022/09/29 01:08:36;;;;;;;3.15;1.85;;;9.30;99.90;;;9.18;100.00;99423.19;5184640;28;20042;-68
2022/09/29 01:11:11;;;;;;;2.92;1.80;;;9.30;99.90;;;9.15;100.00;99432.69;5184731;28;20103;-71
2022/09/29 01:13:44;;;;;;;2.33;1.67;;;9.20;99.90;;;9.10;100.00;99429.09;5184528;28;20057;-70
2022/09/29 01:16:17;;;;;;;3.40;1.90;;;9.20;99.90;;;9.06;100.00;99432.47;5166989;28;20054;-69
2022/09/29 01:18:52;;;;;;;3.20;2.00;;;9.10;99.90;;;9.02;100.00;99435.88;5183506;28;20430;-69
2022/09/29 01:21:36;;;;;;;2.85;1.95;;;9.10;99.90;;;9.01;100.00;99434.16;5184528;28;20045;-70
2022/09/29 01:24:57;;;;;;;2.33;1.90;;;9.10;99.90;;;8.97;100.00;99435.78;5184805;28;20052;-68
2022/09/29 01:28:00;;;;;;;4.15;2.13;;;9.00;99.90;;;8.92;100.00;99429.63;5184607;28;20049;-70
2022/09/29 01:31:02;;;;;;;4.38;1.90;;;9.00;99.90;;;8.88;100.00;99431.31;5184304;28;20499;-70
2022/09/29 01:33:40;;;;;;;3.50;2.05;;;9.00;99.90;;;8.85;100.00;99428.63;5166700;28;20396;-70
2022/09/29 01:36:22;;;;;;;2.85;1.90;;;8.90;99.90;;;8.85;100.00;99441.63;5184128;28;20045;-70
2022/09/29 01:39:07;;;;;;;3.25;1.85;;;8.90;99.90;;;8.87;100.00;99445.16;5167074;28;20045;-69
2022/09/29 01:41:45;;;;;;;2.78;2.00;;;8.90;99.90;;;8.88;100.00;99449.50;5184493;28;20499;-69
2022/09/29 01:44:26;;;;;;;3.10;2.00;;;8.90;99.90;;;8.86;100.00;99443.38;5166547;28;20058;-71
2022/09/29 01:47:06;;;;;;;2.63;2.10;;;8.90;99.90;;;8.85;100.00;99444.22;5184139;28;20041;-69
2022/09/29 01:49:43;;;;;;;3.97;2.00;;;8.90;99.90;;;8.85;100.00;99444.22;5184310;28;20050;-69
2022/09/29 01:52:19;;;;;;;2.25;1.77;;;8.90;99.90;;;8.82;100.00;99438.97;5184164;28;20056;-69
2022/09/29 01:54:56;;;;;;;4.07;1.83;;;8.90;99.90;;;8.79;100.00;99438.88;5184161;28;20046;-68
2022/09/29 01:57:32;;;;;;;2.40;1.67;;;8.90;99.90;;;8.73;100.00;99446.56;5184037;28;20049;-69
2022/09/29 02:00:10;;;;;;;2.83;1.90;;;8.80;99.90;;;8.68;100.00;99440.41;5184172;28;20045;-71
2022/09/29 02:02:52;;;;;;;2.17;1.70;;;8.80;99.90;;;8.68;100.00;99443.88;5183937;28;20139;-68
2022/09/29 02:05:31;;;;;;;3.08;1.70;;;8.80;99.90;;;8.66;100.00;99444.69;5184200;28;20406;-68
2022/09/29 02:08:12;;;;;;;1.90;1.70;;;8.70;99.90;;;8.64;100.00;99444.66;5166784;28;20054;-69
2022/09/29 02:10:51;;;;;;;2.60;1.60;;;8.70;99.90;;;8.64;100.00;99436.00;5188002;28;20141;-67
2022/09/29 02:13:24;;;;;;;2.35;1.90;;;8.70;99.90;;;8.63;100.00;99439.44;5188423;28;20458;-70
2022/09/29 02:15:58;;;;;;;2.35;1.80;;;8.70;99.90;;;8.63;100.00;99442.91;5188070;28;20042;-69
2022/09/29 02:18:40;;;;;;;2.50;1.52;;;8.70;99.90;;;8.63;100.00;99447.22;5188580;28;20050;-67
2022/09/29 02:21:12;;;;;;;3.78;2.10;;;8.70;99.90;;;8.63;100.00;99452.44;5170614;28;20507;-69
2022/09/29 02:23:44;;;;;;;2.88;2.10;;;8.70;99.90;;;8.63;100.00;99447.22;5188437;28;20068;-69
2022/09/29 02:26:18;;;;;;;4.38;2.13;;;8.70;99.90;;;8.61;100.00;99448.94;5188533;28;20056;-70
2022/09/29 02:28:51;;;;;;;3.05;1.92;;;8.70;99.90;;;8.58;100.00;99448.84;5187997;28;20416;-69
2022/09/29 02:31:23;;;;;;;2.55;1.67;;;8.70;99.90;;;8.56;100.00;99450.53;5188094;28;20138;-70
2022/09/29 02:33:57;;;;;;;2.70;1.85;;;8.70;99.90;;;8.53;100.00;99450.47;5187966;28;20050;-70
2022/09/29 02:36:41;;;;;;;2.33;1.70;;;8.60;99.90;;;8.50;100.00;99453.88;5187610;28;20527;-67
2022/09/29 02:39:26;;;;;;;2.35;1.77;;;8.60;99.90;;;8.46;100.00;99453.78;5187759;28;20050;-70
2022/09/29 02:42:12;;;;;;;1.70;1.30;;;8.60;99.90;;;8.39;100.00;99453.63;5187730;28;20045;-71
2022/09/29 02:45:14;;;;;;;3.63;1.55;;;8.50;99.90;;;8.36;100.00;99455.31;5188253;28;20041;-69
2022/09/29 02:48:26;;;;;;;4.25;2.08;;;8.50;99.90;;;8.31;100.00;99454.28;5170412;28;20058;-68
2022/09/29 02:51:13;;;;;;;2.50;1.67;;;8.40;99.90;;;8.27;100.00;99448.13;5149904;28;20550;-69
2022/09/29 02:54:01;;;;;;;3.17;1.63;;;8.40;99.90;;;8.21;100.00;99441.94;5188403;28;20034;-69
2022/09/29 02:56:41;;;;;;;3.58;1.70;;;8.30;99.90;;;8.18;100.00;99447.94;5188191;28;20038;-69
2022/09/29 02:59:20;;;;;;;2.47;1.52;;;8.30;99.90;;;8.16;100.00;99444.44;5187763;28;20049;-69
2022/09/29 03:01:56;;;;;;;2.55;1.50;;;8.30;99.90;;;8.14;100.00;99446.09;5187875;28;20132;-68
2022/09/29 03:04:28;;;;;;;1.70;1.30;;;8.20;99.90;;;8.11;100.00;99449.50;5187261;28;20060;-69
2022/09/29 03:07:02;;;;;;;2.40;1.70;;;8.20;99.90;;;8.10;100.00;99452.97;5185897;28;20046;-68
2022/09/29 03:09:34;;;;;;;2.40;1.45;;;8.20;99.90;;;8.08;100.00;99445.94;5187129;28;20057;-69
2022/09/29 03:12:06;;;;;;;2.08;1.52;;;8.20;99.90;;;8.08;100.00;99451.16;5187227;28;20038;-69
2022/09/29 03:14:38;;;;;;;2.20;1.30;;;8.20;99.90;;;8.04;100.00;99449.34;5186904;28;20045;-69
2022/09/29 03:17:10;;;;;;;2.33;1.60;;;8.10;99.90;;;8.00;100.00;99457.88;5169192;28;20455;-69
2022/09/29 03:19:42;;;;;;;1.77;1.60;;;8.10;99.90;;;7.96;100.00;99458.66;5187327;28;20045;-69
2022/09/29 03:22:16;;;;;;;2.88;1.50;;;8.10;99.90;;;7.89;100.00;99453.34;5186400;28;20045;-70
2022/09/29 03:24:48;;;;;;;2.10;1.42;;;8.00;99.90;;;7.85;100.00;99454.09;5169470;28;20084;-70
2022/09/29 03:27:21;;;;;;;1.73;1.30;;;8.00;99.90;;;7.81;100.00;99452.25;5187376;28;20042;-70
2022/09/29 03:29:53;;;;;;;1.92;1.40;;;7.90;99.90;;;7.77;100.00;99445.25;5186967;28;20041;-71
2022/09/29 03:32:25;;;;;;;2.65;1.70;;;7.90;99.90;;;7.74;100.00;99455.53;5186674;28;20050;-69
2022/09/29 03:34:58;;;;;;;3.70;1.77;;;7.90;99.90;;;7.71;100.00;99455.47;5186839;28;20049;-69
2022/09/29 03:37:31;;;;;;;3.60;1.70;;;7.80;99.90;;;7.68;100.00;99450.19;5186992;28;20048;-68
2022/09/29 03:40:05;;;;;;;2.40;1.70;;;7.80;99.90;;;7.66;100.00;99451.00;5185472;28;20056;-69
2022/09/29 03:42:37;;;;;;;2.72;1.77;;;7.80;99.90;;;7.63;100.00;99451.81;5186368;28;20473;-70
2022/09/29 03:45:10;;;;;;;3.50;1.90;;;7.80;99.90;;;7.62;100.00;99453.50;5186075;28;20042;-69
2022/09/29 03:47:42;;;;;;;1.70;1.50;;;7.70;99.90;;;7.62;100.00;99461.28;5186466;28;20046;-71
2022/09/29 03:50:14;;;;;;;2.58;1.48;;;7.70;99.90;;;7.64;100.00;99461.34;5186277;28;20050;-69
2022/09/29 03:52:48;;;;;;;2.78;1.70;;;7.70;99.90;;;7.64;100.00;99463.94;5186090;28;20050;-68
2022/09/29 03:55:20;;;;;;;1.73;1.42;;;7.80;99.90;;;7.61;100.00;99461.25;5186034;28;20521;-69
2022/09/29 03:57:52;;;;;;;3.13;1.73;;;7.70;99.90;;;7.58;100.00;99468.97;5186403;28;20038;-69
2022/09/29 04:00:24;;;;;;;3.05;1.75;;;7.70;99.90;;;7.54;100.00;99468.00;5186619;28;20061;-71
2022/09/29 04:02:57;;;;;;;2.00;1.60;;;7.70;99.90;;;7.51;100.00;99472.25;5185953;28;20153;-69
2022/09/29 04:05:30;;;;;;;1.98;1.40;;;7.60;99.90;;;7.49;100.00;99473.91;5259813;22;20400;-74
2022/09/29 04:08:03;;;;;;;3.88;1.83;;;7.60;99.90;;;7.45;100.00;99474.69;5219443;28;20049;-73
2022/09/29 04:10:35;;;;;;;3.35;1.60;;;7.60;99.90;;;7.41;100.00;99473.69;5200505;28;20356;-75
2022/09/29 04:13:08;;;;;;;3.03;1.80;;;7.60;99.90;;;7.39;100.00;99472.78;5185734;28;20388;-74
2022/09/29 04:15:41;;;;;;;2.15;1.70;;;7.50;99.90;;;7.37;100.00;99465.78;5184245;28;20049;-74
2022/09/29 04:18:13;;;;;;;2.63;1.65;;;7.50;99.90;;;7.34;100.00;99480.44;5185673;28;20048;-74
2022/09/29 04:20:45;;;;;;;3.67;1.73;;;7.50;99.90;;;7.31;100.00;99485.56;5185021;28;20053;-74
2022/09/29 04:23:19;;;;;;;2.47;1.63;;;7.50;99.90;;;7.31;100.00;99490.75;5185951;28;20050;-74
2022/09/29 04:25:51;;;;;;;2.28;1.80;;;7.50;99.90;;;7.32;100.00;99495.09;5185674;28;20140;-74
2022/09/29 04:28:24;;;;;;;2.75;1.50;;;7.50;99.90;;;7.33;100.00;99494.25;5184071;28;20054;-75
2022/09/29 04:30:56;;;;;;;2.10;1.83;;;7.50;99.90;;;7.35;100.00;99492.56;5184966;28;20104;-74
2022/09/29 04:33:30;;;;;;;4.47;2.15;;;7.50;99.90;;;7.38;100.00;99498.69;5185084;28;20122;-73
2022/09/29 04:36:02;;;;;;;2.63;1.98;;;7.50;99.90;;;7.40;100.00;99497.00;5184785;28;20041;-73
2022/09/29 04:38:36;;;;;;;2.25;1.75;;;7.50;99.90;;;7.41;100.00;99503.94;5184786;28;20041;-75
2022/09/29 04:41:08;;;;;;;3.88;2.22;;;7.50;99.90;;;7.41;100.00;99494.44;5185264;28;20116;-74
2022/09/29 04:43:40;;;;;;;4.97;2.60;;;7.50;99.90;;;7.41;100.00;99490.97;5185030;28;20050;-74
2022/09/29 04:46:14;;;;;;;5.55;2.28;;;7.60;99.90;;;7.43;100.00;99497.06;5183842;28;20053;-74
2022/09/29 04:48:47;;;;;;;4.40;2.35;;;7.60;99.90;;;7.45;100.00;99504.06;5184712;28;20045;-74
2022/09/29 04:51:20;;;;;;;5.55;2.40;;;7.60;99.90;;;7.45;100.00;99503.19;5183115;28;20049;-75
2022/09/29 04:53:54;;;;;;;7.22;2.50;;;7.60;99.90;;;7.43;100.00;99502.25;5184810;28;20415;-75
2022/09/29 04:56:30;;;;;;;6.30;2.50;;;7.60;99.90;;;7.40;100.00;99507.38;5182583;28;20458;-74
2022/09/29 04:59:02;;;;;;;4.53;2.50;;;7.50;99.90;;;7.38;100.00;99506.47;5184547;28;20092;-74
2022/09/29 05:01:34;;;;;;;3.60;2.08;;;7.50;99.90;;;7.34;100.00;99511.53;5184804;28;20132;-74
2022/09/29 05:04:07;;;;;;;3.65;2.00;;;7.50;99.90;;;7.28;100.00;99501.00;5184728;28;20120;-74
2022/09/29 05:06:39;;;;;;;4.75;2.72;;;7.40;99.90;;;7.26;100.00;99513.06;5184420;28;20498;-74
2022/09/29 05:09:13;;;;;;;3.20;1.92;;;7.40;99.90;;;7.26;100.00;99512.19;5182869;28;20502;-74
2022/09/29 05:11:45;;;;;;;4.20;2.45;;;7.40;99.90;;;7.24;100.00;99519.06;5183236;28;20149;-74
2022/09/29 05:14:17;;;;;;;3.78;2.08;;;7.40;99.90;;;7.23;100.00;99517.25;5184632;28;20120;-75
2022/09/29 05:16:49;;;;;;;3.25;1.92;;;7.30;99.90;;;7.23;100.00;99523.31;5184405;28;20129;-74
2022/09/29 05:19:21;;;;;;;3.22;1.90;;;7.40;99.90;;;7.21;100.00;99530.19;5183981;28;20495;-74
2022/09/29 05:21:53;;;;;;;3.78;2.15;;;7.40;99.90;;;7.19;100.00;99537.06;5184417;28;20045;-75
2022/09/29 05:24:27;;;;;;;5.80;2.50;;;7.40;99.90;;;7.16;100.00;99529.19;5184355;28;20125;-74
2022/09/29 05:27:00;;;;;;;5.28;2.58;;;7.30;99.90;;;7.13;100.00;99526.50;5183946;28;20405;-74
2022/09/29 05:29:32;;;;;;;5.13;2.92;;;7.30;99.90;;;7.13;100.00;99531.69;5181667;28;20149;-75
2022/09/29 05:32:04;;;;;;;5.15;2.47;;;7.30;99.90;;;7.13;100.00;99525.63;5183837;28;20054;-74
2022/09/29 05:34:36;;;;;;;4.57;2.80;;;7.30;99.90;;;7.12;100.00;99532.53;5184265;28;20046;-73
2022/09/29 05:37:08;;;;;;;5.35;2.95;;;7.30;99.90;;;7.10;100.00;99530.72;5184437;28;20131;-73
2022/09/29 05:39:43;;;;;;;4.78;2.58;;;7.30;99.90;;;7.13;100.00;99536.88;5184042;28;20121;-72
2022/09/29 05:42:15;;;;;;;;;;;7.30;99.90;;;7.16;100.00;99547.31;5183118;28;20050;-65
2022/09/29 05:44:47;;;;;;;4.93;2.58;;;7.30;99.90;;;7.19;100.00;99546.53;5184194;28;20007;-65
2022/09/29 05:47:19;;;;;;;4.10;2.30;;;7.30;99.90;;;7.24;100.00;99540.66;5184576;28;20042;-66
2022/09/29 05:49:51;;;;;;;4.55;2.55;;;7.40;99.90;;;7.26;100.00;99538.97;5184602;28;20056;-66
2022/09/29 05:52:23;;;;;;;5.60;2.67;;;7.40;99.90;;;7.29;100.00;99544.22;5184443;28;20049;-66
2022/09/29 05:54:57;;;;;;;4.95;2.40;;;7.50;99.90;;;7.33;100.00;99538.31;5184612;28;20046;-65
2022/09/29 05:57:29;;;;;;;4.45;2.20;;;7.50;99.90;;;7.39;100.00;99539.31;5183902;28;20078;-66
2022/09/29 06:00:01;;;;;;;5.72;2.50;;;7.50;99.90;;;7.44;100.00;99542.94;5183493;28;20041;-66
2022/09/29 06:02:43;;;;;;;6.68;2.95;;;7.60;99.90;;;7.49;100.00;99541.31;5183803;28;20087;-66
2022/09/29 06:05:15;;;;;;;5.32;2.45;;;7.60;99.90;;;7.55;100.00;99542.34;5182034;28;20065;-61
2022/09/29 06:07:47;;;;;;;8.07;3.85;;;7.70;99.90;;;7.60;100.00;99540.78;5183361;28;20548;-59
2022/09/29 06:10:21;;;;;;;12.40;5.70;;;7.70;99.90;;;7.65;100.00;99551.28;5182723;28;20042;-59
2022/09/29 06:12:53;;;;;;;11.05;5.80;;;7.80;99.90;;;7.68;100.00;99546.16;5183023;28;20506;-59
2022/09/29 06:15:25;;;;;;;11.75;6.70;;;7.80;99.90;;;7.73;100.00;99547.16;5182761;28;20050;-58
2022/09/29 06:17:59;;;;;;;13.50;7.10;;;7.80;99.90;;;7.75;100.00;99549.78;5183153;28;20038;-59
2022/09/29 06:20:37;;;;;;;23.77;12.88;;;7.90;99.90;;;7.77;100.00;99549.00;5181304;28;20053;-59
2022/09/29 06:23:09;;;;;;;17.20;10.30;;;7.90;99.90;;;7.80;100.00;99551.66;5183131;28;20046;-59
2022/09/29 06:25:42;;;;;;;16.52;9.45;;;7.90;99.90;;;7.82;100.00;99549.09;5183056;28;20045;-59
2022/09/29 06:28:14;;;;;;;17.52;9.32;;;7.90;99.90;;;7.80;100.00;99556.84;5182993;28;20049;-59
2022/09/29 06:30:46;;;;;;;22.25;11.05;;;8.00;99.90;;;7.80;100.00;99563.75;5182806;28;20057;-59
2022/09/29 06:33:19;;;;;;;17.95;8.55;;;8.00;99.90;;;7.81;100.00;99561.19;5182861;28;20049;-59
2022/09/29 06:38:49;;;;;;;16.13;7.75;;;8.00;99.90;;;7.92;100.00;99563.22;5146994;28;20116;-59
2022/09/29 06:41:22;;;;;;;13.48;7.30;;;8.10;99.90;;;8.00;100.00;99569.47;5182847;28;20133;-58
2022/09/29 06:43:55;;;;;;;14.48;6.32;;;8.10;99.90;;;8.04;100.00;99563.53;5182795;28;20065;-60
2022/09/29 06:46:27;;;;;;;13.93;6.45;;;8.20;99.90;;;8.05;100.00;99571.34;5182656;28;20042;-60
2022/09/29 06:48:59;;;;;;;15.15;6.65;;;8.20;99.90;;;8.08;100.00;99570.53;5182448;28;20042;-59
2022/09/29 06:51:31;;;;;;;17.60;6.57;;;8.20;99.90;;;8.10;100.00;99568.88;5182599;28;20410;-60
2022/09/29 06:54:03;;;;;;;13.93;5.63;;;8.20;99.90;;;8.13;100.00;99580.19;5181405;28;20054;-59
2022/09/29 06:56:37;;;;;;;12.15;5.10;;;8.30;99.90;;;8.22;100.00;99582.16;5184370;28;20409;-59
2022/09/29 06:59:09;;;;;;;10.27;5.15;;;8.40;99.90;;;8.34;100.00;99574.66;5186070;28;20046;-60
2022/09/29 07:01:41;;;;;;;10.77;4.95;;;8.50;99.90;;;8.56;100.00;99575.22;5186330;28;20049;-58
2022/09/29 07:04:13;;;;;;;9.40;4.20;;;8.70;99.90;;;8.68;100.00;99575.50;5186232;28;20042;-59
2022/09/29 07:06:45;;;;;;;13.07;5.60;;;8.80;99.90;;;8.61;100.00;99579.69;5186568;28;20042;-59
2022/09/29 07:09:18;;;;;;;8.23;4.10;;;8.80;99.90;;;8.63;100.00;99583.19;5184697;28;20057;-59
2022/09/29 07:11:52;;;;;;;8.38;4.15;;;8.80;99.90;;;8.64;100.00;99584.94;5186209;28;20053;-59
2022/09/29 07:14:25;;;;;;;9.85;5.22;;;8.80;99.90;;;8.65;100.00;99584.09;5186472;28;20545;-58
2022/09/29 07:16:58;;;;;;;9.23;4.78;;;8.80;99.90;;;8.71;100.00;99583.34;5186081;28;20372;-59
2022/09/29 07:19:31;;;;;;;10.10;5.88;;;8.80;99.90;;;8.76;100.00;99581.75;5185719;28;20069;-59
2022/09/29 07:22:04;;;;;;;7.18;3.85;;;8.80;99.90;;;8.82;100.00;99584.47;5185904;28;20424;-59
2022/09/29 07:24:36;;;;;;;7.95;4.45;;;8.90;99.90;;;8.87;100.00;99593.25;5184722;28;20057;-59
2022/09/29 07:27:10;;;;;;;9.23;4.15;;;8.90;99.90;;;8.92;100.00;99581.22;5185896;28;20403;-59
2022/09/29 07:29:42;;;;;;;9.30;4.55;;;9.00;99.90;;;9.01;100.00;99588.38;5185540;28;20067;-59
2022/09/29 07:32:14;;;;;;;10.38;5.30;;;9.10;99.90;;;9.19;100.00;99591.38;5185620;28;20050;-59
2022/09/29 07:34:46;;;;;;;10.90;5.55;;;9.20;99.90;;;9.37;100.00;99590.84;5185594;28;20050;-59
2022/09/29 07:37:18;;;;;;;9.85;4.97;;;9.30;99.90;;;9.53;100.00;99589.44;5185672;28;20046;-59
2022/09/29 07:39:50;;;;;;;9.57;5.10;;;9.40;99.90;;;9.63;100.00;99590.50;5185336;28;20057;-59
2022/09/29 07:42:24;;;;;;;9.18;4.38;;;9.60;99.90;;;9.68;100.00;99594.06;5185627;28;20044;-59
2022/09/29 07:45:01;;;;;;;8.38;4.22;;;9.60;99.90;;;9.67;100.00;99598.41;5185646;28;20053;-59
2022/09/29 07:47:33;;;;;;;8.68;4.00;;;9.60;99.90;;;9.68;100.00;99602.75;5185793;28;20513;-59
2022/09/29 07:50:07;;;;;;;10.48;4.85;;;9.70;99.90;;;9.66;100.00;99600.97;5184572;28;20052;-59
2022/09/29 07:52:39;;;;;;;7.88;4.32;;;9.70;99.90;;;9.63;100.00;99606.97;5185572;28;20049;-60
2022/09/29 07:55:11;;;;;;;8.00;4.28;;;9.70;99.90;;;9.72;100.00;99607.19;5185538;28;20069;-60
2022/09/29 07:57:48;;;;;;;7.63;3.85;;;9.80;99.90;;;9.93;100.00;99601.50;5185318;28;20073;-59
2022/09/29 08:00:20;;;;;;;7.68;4.72;;;9.90;99.90;;;10.07;100.00;99607.81;5184917;28;20280;-60
2022/09/29 08:02:52;;;;;;;9.40;4.40;;;10.00;99.90;;;10.15;100.00;99614.88;5185358;28;20045;-60
2022/09/29 08:05:24;;;;;;;7.30;4.10;;;10.10;99.90;;;10.23;100.00;99614.19;5185163;28;20049;-60
2022/09/29 08:07:56;;;;;;;8.40;4.20;;;10.10;99.90;;;10.32;100.00;99618.69;5184713;28;20406;-60
2022/09/29 08:10:29;;;;;;;9.73;5.38;;;10.20;99.90;;;10.39;100.00;99625.75;5183228;28;20466;-60
2022/09/29 08:13:03;;;;;;;9.18;5.53;;;10.30;99.90;;;10.46;100.00;99622.41;5185051;28;20401;-60
2022/09/29 08:15:35;;;;;;;10.52;5.40;;;10.40;99.90;;;10.47;100.00;99633.72;5185425;28;20517;-60
2022/09/29 08:18:07;;;;;;;9.70;5.00;;;10.40;99.90;;;10.40;100.00;99626.63;5184878;28;20041;-60
2022/09/29 08:20:39;;;;;;;10.85;4.88;;;10.30;99.90;;;10.38;100.00;99630.97;5184440;28;20041;-60
2022/09/29 08:23:11;;;;;;;9.73;5.22;;;10.30;99.90;;;10.37;100.00;99640.50;5184848;28;20054;-60
2022/09/29 08:25:43;;;;;;;10.85;5.43;;;10.30;99.90;;;10.55;100.00;99642.50;5185018;28;20486;-60
2022/09/29 08:28:17;;;;;;;10.38;5.00;;;10.40;99.90;;;11.49;100.00;99640.44;5184782;28;20038;-60
2022/09/29 08:30:49;;;;;;;8.25;4.65;;;10.90;99.90;;;12.50;100.00;99644.16;5184094;28;20056;-60
2022/09/29 08:33:21;;;;;;;6.03;3.50;;;11.60;99.90;;;13.46;100.00;99646.59;5184649;28;20459;-60
2022/09/29 08:35:57;;;;;;;6.43;3.80;;;12.40;99.90;;;14.37;100.00;99657.34;5184751;28;20056;-60
2022/09/29 08:38:29;;;;;;;5.90;3.25;;;13.10;99.90;;;15.27;99.87;99642.50;5184170;28;20053;-60
2022/09/29 08:41:04;;;;;;;6.15;3.67;;;13.90;99.90;;;15.91;94.64;99647.50;5184403;28;20470;-60
2022/09/29 08:43:43;;;;;;;8.63;4.10;;;14.60;99.90;;;16.32;90.11;99660.44;5184539;28;20037;-60
2022/09/29 08:46:24;;;;;;;6.50;3.75;;;15.10;99.90;;;16.29;86.59;99655.19;5184511;28;20052;-60
2022/09/29 08:48:58;;;;;;;5.57;3.17;;;15.30;99.90;;;16.37;87.52;99663.03;5184042;28;20045;-60
2022/09/29 08:51:35;;;;;;;4.50;2.72;;;15.50;99.90;;;16.43;87.87;99661.25;5184232;28;20604;-60
2022/09/29 08:54:18;;;;;;;6.35;3.92;;;15.70;99.90;;;16.21;84.95;99665.75;5184374;28;20042;-60
2022/09/29 08:56:50;;;;;;;7.38;3.88;;;15.70;98.30;;;15.91;87.00;99664.19;5184454;28;20050;-59
2022/09/29 08:59:26;;;;;;;5.88;3.30;;;15.60;98.70;;;15.75;88.18;99667.72;5183708;28;20052;-60
2022/09/29 09:02:31;;;;;;;5.40;3.17;;;15.50;98.90;;;15.82;89.12;99663.31;5184088;28;20073;-60
2022/09/29 09:06:01;;;;;;;5.85;2.75;;;15.50;99.20;;;16.25;97.26;99664.00;5184380;28;20041;-62
2022/09/29 09:08:52;;;;;;;4.43;2.25;;;16.00;99.90;;;16.67;94.80;99661.94;5161054;28;20054;-59
2022/09/29 09:11:38;;;;;;;5.70;3.22;;;16.50;99.90;;;16.91;88.67;99660.88;5183917;28;20042;-60
2022/09/29 09:14:29;;;;;;;4.40;2.60;;;16.70;98.30;;;17.21;89.25;99659.72;5183956;28;20050;-60
2022/09/29 09:17:15;;;;;;;4.80;2.80;;;17.00;98.70;;;17.50;87.61;99657.66;5184152;28;20530;-62
2022/09/29 09:20:09;;;;;;;4.13;2.97;;;17.30;98.00;;;17.71;86.19;99666.19;5183093;28;20084;-62
2022/09/29 09:22:48;;;;;;;;;;;17.50;97.40;;;17.83;85.34;99666.94;5184235;28;20100;-61
2022/09/29 09:25:28;;;;;;;3.38;2.45;;;17.60;97.20;;;18.00;84.71;99664.09;5183883;28;20326;-61
2022/09/29 09:28:06;;;;;;;4.57;2.08;;;17.70;96.70;;;18.11;84.30;99661.31;5183660;28;20049;-61
2022/09/29 09:30:49;;;;;;;3.20;2.10;;;17.80;96.40;;;18.32;84.51;99660.13;5183116;28;20050;-61
2022/09/29 09:33:29;;;;;;;3.38;2.10;;;18.10;96.30;;;18.51;82.78;99666.88;5183546;28;20052;-61
2022/09/29 09:36:07;;;;;;;5.25;2.10;;;18.30;95.50;;;18.73;82.16;99670.09;5182492;28;20061;-61
2022/09/29 09:38:51;;;;;;;5.78;2.55;;;18.40;95.10;;;18.76;80.71;99672.66;5183111;28;20038;-62
2022/09/29 09:41:24;;;;;;;5.10;2.53;;;18.50;94.20;;;18.77;80.68;99663.84;5183692;28;20053;-61
2022/09/29 09:44:03;;;;;;;4.20;1.88;;;18.60;94.10;;;18.83;80.24;99673.44;5183214;28;20049;-62
2022/09/29 09:46:43;;;;;;;4.07;2.20;;;18.70;93.80;;;18.97;80.40;99676.72;5183612;28;20048;-62
2022/09/29 09:49:20;;;;;;;4.07;1.92;;;18.70;93.80;;;19.20;79.86;99669.25;5182892;28;20046;-62
2022/09/29 09:51:59;;;;;;;3.97;2.30;;;18.90;93.50;;;19.35;77.78;99662.81;5183381;28;20049;-62
2022/09/29 09:54:36;;;;;;;5.15;2.13;;;19.10;92.50;;;19.37;76.72;99660.16;5183322;28;20061;-60
2022/09/29 09:57:32;;;;;;;4.82;2.25;;;19.10;91.80;;;19.43;75.33;99662.66;5183587;28;20475;-63
2022/09/29 10:00:10;;;;;;;3.45;2.28;;;19.20;92.10;;;19.81;75.40;99658.44;5182845;28;20050;-61
2022/09/29 10:02:50;;;;;;;3.97;2.10;;;19.40;91.50;;;20.09;74.13;99659.59;5183674;28;20053;-62
2022/09/29 10:05:25;;;;;;;3.72;2.28;;;19.60;90.80;;;20.24;73.06;99658.38;5183173;28;20053;-62
2022/09/29 10:07:57;;;;;;;2.88;2.00;;;19.70;90.20;;;20.30;72.88;99661.75;5183555;28;20038;-62
2022/09/29 10:10:30;;;;;;;4.80;2.13;;;19.80;89.70;;;20.33;72.95;99666.97;5182887;28;20517;-63
2022/09/29 10:13:07;;;;;;;3.22;1.83;;;19.90;89.00;;;20.24;72.48;99658.38;5183042;28;20058;-64
2022/09/29 10:15:45;;;;;;;3.70;2.17;;;19.90;87.70;;;20.23;73.15;99660.16;5183366;28;20046;-64
2022/09/29 10:18:24;;;;;;;4.07;2.05;;;19.90;88.00;;;20.20;72.43;99665.50;5183204;28;20045;-64
2022/09/29 10:20:56;;;;;;;4.80;2.00;;;19.80;86.90;;;20.06;73.08;99657.88;5183120;28;20052;-64
2022/09/29 10:23:32;;;;;;;3.33;1.92;;;19.80;87.20;;;20.04;73.41;99664.97;5183283;28;20100;-64
2022/09/29 10:26:15;;;;;;;3.80;1.95;;;19.70;87.30;;;20.09;73.15;99664.88;5183152;28;20046;-64
2022/09/29 10:28:53;;;;;;;3.80;2.20;;;19.80;86.90;;;20.17;73.12;99665.59;5182700;28;20042;-63
2022/09/29 10:31:29;;;;;;;2.30;1.85;;;19.80;86.70;;;20.24;72.47;99672.47;5186210;28;20727;-63
2022/09/29 10:34:17;;;;;;;3.67;1.95;;;19.90;85.90;;;20.27;72.73;99671.53;5187013;28;20042;-63
2022/09/29 10:36:52;;;;;;;3.40;2.50;;;19.90;85.70;;;20.35;71.37;99676.66;5187174;28;20041;-62
2022/09/29 10:39:34;;;;;;;4.00;2.08;;;20.00;84.40;;;20.28;70.19;99668.88;5186855;28;20046;-63
2022/09/29 10:42:20;;;;;;;2.45;1.77;;;20.00;83.00;;;20.36;71.97;99670.47;5186879;28;20046;-60
2022/09/29 10:45:00;;;;;;;3.13;2.00;;;20.00;84.50;;;20.48;69.99;99675.50;5187076;28;20042;-60
2022/09/29 10:47:33;;;;;;;2.70;1.90;;;20.10;82.90;;;20.49;68.96;99671.97;5185483;28;20522;-61
2022/09/29 10:50:16;;;;;;;4.78;2.40;;;20.10;81.50;;;20.45;68.77;99680.88;5184953;28;20104;-60
2022/09/29 10:52:53;;;;;;;3.25;1.92;;;20.00;81.10;;;20.35;67.96;99679.31;5186666;28;20065;-59
2022/09/29 10:55:28;;;;;;;4.07;1.67;;;19.90;80.20;;;20.25;68.83;99676.00;5186429;28;20064;-60
2022/09/29 10:58:20;;;;;;;2.13;1.73;;;19.80;80.70;;;20.24;70.27;99677.75;5186995;28;20038;-61
2022/09/29 11:01:07;;;;;;;3.38;1.70;;;19.80;82.30;;;20.16;70.10;99671.78;5186029;28;20050;-60
2022/09/29 11:03:41;;;;;;;2.75;1.40;;;19.60;81.70;;;20.26;71.67;99675.94;5186706;28;20351;-61